createdAt,value
2017-02-09T08:08:54.935Z,1034.24
2017-02-09T08:09:36.327Z,1034.24
2017-02-09T08:10:16.845Z,1034.26
2017-02-09T08:10:57.304Z,1034.26
2017-02-09T08:11:37.780Z,1034.27
2017-02-09T08:12:18.292Z,1034.27
2017-02-09T08:12:58.836Z,1034.3
2017-02-09T08:13:39.371Z,1034.24
2017-02-09T08:14:19.809Z,1034.27
2017-02-09T08:15:00.286Z,1034.25
2017-02-09T08:15:40.819Z,1034.24
2017-02-09T08:16:21.391Z,1034.26
2017-02-09T08:17:01.964Z,1034.24
2017-02-09T08:17:42.691Z,1034.29
2017-02-09T08:18:23.192Z,1034.27
2017-02-09T08:19:03.698Z,1034.34
2017-02-09T08:19:44.214Z,1034.28
2017-02-09T08:20:24.685Z,1034.31
2017-02-09T08:21:05.420Z,1034.31
2017-02-09T08:21:46.035Z,1034.3
2017-02-09T08:22:26.503Z,1034.29
2017-02-09T08:23:06.973Z,1034.31
2017-02-09T08:23:47.464Z,1034.29
2017-02-09T08:24:28.287Z,1034.21
2017-02-09T08:25:08.723Z,1034.25
2017-02-09T08:25:49.238Z,1034.27
2017-02-09T08:26:29.725Z,1034.25
2017-02-09T08:27:10.222Z,1034.31
2017-02-09T08:27:50.849Z,1034.29
2017-02-09T08:28:31.416Z,1034.27
2017-02-09T08:29:11.909Z,1034.25
2017-02-09T08:29:52.471Z,1034.32
2017-02-09T08:30:32.993Z,1034.29
2017-02-09T08:31:13.484Z,1034.34
2017-02-09T08:31:53.980Z,1034.32
2017-02-09T08:32:34.475Z,1034.31
2017-02-09T08:33:15.029Z,1034.31
2017-02-09T08:33:55.495Z,1034.34
2017-02-09T08:34:36.070Z,1034.33
2017-02-09T08:35:16.784Z,1034.33
2017-02-09T08:35:57.342Z,1034.34
2017-02-09T08:36:37.808Z,1034.32
2017-02-09T08:37:18.258Z,1034.32
2017-02-09T08:37:58.779Z,1034.36
2017-02-09T08:38:39.298Z,1034.32
2017-02-09T08:39:19.895Z,1034.32
2017-02-09T08:40:00.423Z,1034.37
2017-02-09T08:40:40.930Z,1034.36
2017-02-09T08:41:21.434Z,1034.37
2017-02-09T08:42:02.247Z,1034.37
2017-02-09T08:42:42.725Z,1034.36
2017-02-09T08:43:23.245Z,1034.33
2017-02-09T08:44:03.709Z,1034.37
2017-02-09T08:44:44.266Z,1034.36
2017-02-09T08:45:24.837Z,1034.33
2017-02-09T08:46:05.311Z,1034.35
2017-02-09T08:46:45.853Z,1034.32
2017-02-09T08:47:27.597Z,1034.31
2017-02-09T08:48:08.081Z,1034.32
2017-02-09T08:48:48.575Z,1034.38
2017-02-09T08:49:29.067Z,1034.34
2017-02-09T08:50:09.596Z,1034.32
2017-02-09T08:50:50.088Z,1034.3
2017-02-09T08:51:30.526Z,1034.29
2017-02-09T08:52:11.189Z,1034.27
2017-02-09T08:52:51.625Z,1034.3
2017-02-09T08:53:32.151Z,1034.31
2017-02-09T08:54:12.699Z,1034.31
2017-02-09T08:54:53.199Z,1034.34
2017-02-09T08:55:34.658Z,1034.28
2017-02-09T08:56:15.163Z,1034.29
2017-02-09T08:56:55.611Z,1034.29
2017-02-09T08:57:36.087Z,1034.27
2017-02-09T08:58:16.553Z,1034.29
2017-02-09T08:58:57.112Z,1034.33
2017-02-09T08:59:37.598Z,1034.32
2017-02-09T09:00:18.073Z,1034.33
2017-02-09T09:00:58.611Z,1034.32
2017-02-09T09:01:39.272Z,1034.34
2017-02-09T09:02:19.734Z,1034.33
2017-02-09T09:03:00.200Z,1034.32
2017-02-09T09:03:40.671Z,1034.27
2017-02-09T09:04:21.143Z,1034.25
2017-02-09T09:05:01.592Z,1034.33
2017-02-09T09:07:02.162Z,1034.26
2017-02-09T09:07:42.631Z,1034.27
2017-02-09T09:08:23.166Z,1034.28
2017-02-09T09:09:03.680Z,1034.26
2017-02-09T09:09:44.243Z,1034.3
2017-02-09T09:10:24.926Z,1034.27
2017-02-09T09:11:05.400Z,1034.26
2017-02-09T09:11:45.973Z,1034.25
2017-02-09T09:12:26.545Z,1034.27
2017-02-09T09:13:07.072Z,1034.18
2017-02-09T09:13:47.641Z,1034.2
2017-02-09T09:14:29.145Z,1034.19
2017-02-09T09:15:09.710Z,1034.18
2017-02-09T09:15:50.183Z,1034.2
2017-02-09T09:16:30.673Z,1034.15
2017-02-09T09:17:11.163Z,1034.16
2017-02-09T09:17:51.703Z,1034.12
2017-02-09T09:18:32.164Z,1034.11
2017-02-09T09:19:12.714Z,1034.12
2017-02-09T09:19:53.223Z,1034.12
2017-02-09T09:20:33.674Z,1034.12
2017-02-09T09:21:14.185Z,1034.09
2017-02-09T09:21:54.662Z,1034.13
2017-02-09T09:22:35.142Z,1034.06
2017-02-09T09:23:15.762Z,1034.09
2017-02-09T09:23:56.251Z,1034.06
2017-02-09T09:24:36.762Z,1034.1
2017-02-09T09:25:17.232Z,1034.09
2017-02-09T09:25:57.730Z,1034.02
2017-02-09T09:26:38.209Z,1034.04
2017-02-09T09:27:18.737Z,1034.07
2017-02-09T09:27:59.216Z,1034.09
2017-02-09T09:28:39.744Z,1034.07
2017-02-09T09:29:20.194Z,1034.1
2017-02-09T09:30:00.718Z,1034.08
2017-02-09T09:30:41.190Z,1034.13
2017-02-09T09:31:21.690Z,1034.12
2017-02-09T09:32:02.190Z,1034.13
2017-02-09T09:32:42.679Z,1034.06
2017-02-09T09:33:23.199Z,1034.15
2017-02-09T09:34:03.658Z,1034.14
2017-02-09T09:34:44.215Z,1034.13
2017-02-09T09:35:24.714Z,1034.17
2017-02-09T09:36:05.169Z,1034.13
2017-02-09T09:36:45.666Z,1034.17
2017-02-09T09:37:26.138Z,1034.11
2017-02-09T09:38:06.688Z,1034.15
2017-02-09T09:38:47.119Z,1034.16
2017-02-09T09:39:27.583Z,1034.16
2017-02-09T09:40:08.564Z,1034.11
2017-02-09T09:40:49.059Z,1034.14
2017-02-09T09:41:29.569Z,1034.15
2017-02-09T09:42:10.029Z,1034.13
2017-02-09T09:42:51.165Z,1034.13
2017-02-09T09:43:31.670Z,1034.13
2017-02-09T09:44:12.135Z,1034.15
2017-02-09T09:44:52.652Z,1034.12
2017-02-09T09:47:27.144Z,1034.13
2017-02-09T09:48:08.339Z,1034.11
2017-02-09T09:48:48.821Z,1034.17
2017-02-09T09:49:29.433Z,1034.1
2017-02-09T09:50:09.993Z,1034.09
2017-02-09T09:50:50.501Z,1034.1
2017-02-09T09:51:30.961Z,1034.08
2017-02-09T09:52:11.440Z,1034.1
2017-02-09T09:52:52.023Z,1034.08
2017-02-09T09:53:33.447Z,1034.11
2017-02-09T09:54:13.898Z,1034.09
2017-02-09T09:54:54.420Z,1034.06
2017-02-09T09:55:35.041Z,1034.07
2017-02-09T09:56:15.520Z,1034.04
2017-02-09T09:56:55.982Z,1034.02
2017-02-09T09:57:36.441Z,1034.01
2017-02-09T09:58:17.001Z,1034.01
2017-02-09T09:58:57.494Z,1033.97
2017-02-09T09:59:38.006Z,1033.98
2017-02-09T10:00:18.535Z,1034.01
2017-02-09T10:00:59.035Z,1034.02
2017-02-09T10:01:39.505Z,1034
2017-02-09T10:02:20.074Z,1033.97
2017-02-09T10:03:00.550Z,1033.97
2017-02-09T10:03:41.094Z,1033.97
2017-02-09T10:04:21.552Z,1033.96
2017-02-09T10:05:04.917Z,1033.95
2017-02-09T10:05:45.408Z,1033.97
2017-02-09T10:06:25.864Z,1033.98
2017-02-09T10:07:06.376Z,1033.96
2017-02-09T10:07:46.854Z,1033.98
2017-02-09T10:08:27.340Z,1033.97
2017-02-09T10:09:07.809Z,1034.02
2017-02-09T10:09:48.344Z,1033.98
2017-02-09T10:10:28.767Z,1034.04
2017-02-09T10:11:09.284Z,1033.99
2017-02-09T10:11:49.806Z,1034
2017-02-09T10:12:30.290Z,1034
2017-02-09T10:13:11.675Z,1034.01
2017-02-09T10:13:52.109Z,1034.02
2017-02-09T10:14:32.571Z,1034.01
2017-02-09T10:17:07.971Z,1034.12
2017-02-09T10:17:48.386Z,1034.06
2017-02-09T10:18:28.862Z,1034.09
2017-02-09T10:19:09.356Z,1034.08
2017-02-09T10:19:49.850Z,1034.13
2017-02-09T10:20:30.387Z,1034.06
2017-02-09T10:21:10.847Z,1034.1
2017-02-09T10:21:51.362Z,1034.1
2017-02-09T10:22:31.883Z,1034.09
2017-02-09T10:23:12.398Z,1034.07
2017-02-09T10:23:52.920Z,1034.08
2017-02-09T10:24:33.381Z,1034.07
2017-02-09T10:25:13.819Z,1034.12
2017-02-09T10:25:54.332Z,1034.07
2017-02-09T10:26:34.895Z,1034.11
2017-02-09T10:27:16.080Z,1034.06
2017-02-09T10:27:56.504Z,1034.1
2017-02-09T10:28:37.017Z,1034.09
2017-02-09T10:29:17.516Z,1034.11
2017-02-09T10:29:58.013Z,1034.12
2017-02-09T10:30:38.547Z,1034.09
2017-02-09T10:31:18.998Z,1034.11
2017-02-09T10:31:59.491Z,1034.09
2017-02-09T10:32:39.975Z,1034.13
2017-02-09T10:34:57.577Z,1034.06
2017-02-09T10:35:37.992Z,1034.07
2017-02-09T10:36:18.527Z,1034.1
2017-02-09T10:36:59.035Z,1034.07
2017-02-09T10:37:39.535Z,1034.05
2017-02-09T10:38:20.010Z,1034.07
2017-02-09T10:39:00.596Z,1034.06
2017-02-09T10:39:41.168Z,1034.06
2017-02-09T10:40:21.740Z,1034
2017-02-09T10:41:02.241Z,1034.01
2017-02-09T10:41:42.798Z,1034.02
2017-02-09T10:42:23.269Z,1034.02
2017-02-09T10:43:03.773Z,1034
2017-02-09T10:43:44.236Z,1034.06
2017-02-09T10:44:24.713Z,1034.06
2017-02-09T10:45:05.235Z,1034.05
2017-02-09T10:45:45.834Z,1034.01
2017-02-09T10:48:00.157Z,1034.04
2017-02-09T10:48:40.596Z,1034.03
2017-02-09T10:49:21.108Z,1034.01
2017-02-09T10:50:01.647Z,1034.03
2017-02-09T10:50:42.178Z,1034.01
2017-02-09T10:51:22.650Z,1034.02
2017-02-09T10:52:03.101Z,1033.96
2017-02-09T10:52:43.578Z,1033.97
2017-02-09T10:53:24.110Z,1034.01
2017-02-09T10:54:04.702Z,1034
2017-02-09T10:54:45.177Z,1034.01
2017-02-09T10:55:25.680Z,1033.98
2017-02-09T10:56:06.179Z,1033.94
2017-02-09T10:56:46.663Z,1033.94
2017-02-09T10:57:27.163Z,1033.93
2017-02-09T10:58:07.682Z,1033.91
2017-02-09T10:58:48.280Z,1033.98
2017-02-09T10:59:28.768Z,1033.99
2017-02-09T11:00:09.245Z,1033.95
2017-02-09T11:00:49.733Z,1033.96
2017-02-09T11:01:30.224Z,1033.98
2017-02-09T11:02:10.699Z,1033.97
2017-02-09T11:02:51.216Z,1033.94
2017-02-09T11:03:31.730Z,1033.93
2017-02-09T11:04:12.207Z,1033.96
2017-02-09T11:04:52.759Z,1033.94
2017-02-09T11:05:33.258Z,1033.98
2017-02-09T11:06:13.722Z,1033.99
2017-02-09T11:06:54.207Z,1033.96
2017-02-09T11:07:34.696Z,1033.96
2017-02-09T11:08:15.201Z,1033.92
2017-02-09T11:08:55.641Z,1033.88
2017-02-09T11:09:36.201Z,1033.93
2017-02-09T11:10:16.727Z,1033.97
2017-02-09T11:10:57.234Z,1033.91
2017-02-09T11:11:37.677Z,1033.93
2017-02-09T11:12:18.158Z,1033.93
2017-02-09T11:12:58.727Z,1033.9
2017-02-09T11:13:39.231Z,1033.94
2017-02-09T11:14:19.722Z,1033.96
2017-02-09T11:15:00.175Z,1033.91
2017-02-09T11:15:40.671Z,1033.95
2017-02-09T11:16:21.252Z,1033.9
2017-02-09T11:17:01.759Z,1033.94
2017-02-09T11:17:42.234Z,1033.92
2017-02-09T11:18:22.725Z,1033.9
2017-02-09T11:19:03.157Z,1033.96
2017-02-09T11:19:43.668Z,1033.91
2017-02-09T11:20:24.098Z,1033.9
2017-02-09T11:21:04.633Z,1033.9
2017-02-09T11:21:45.186Z,1033.91
2017-02-09T11:22:25.702Z,1033.85
2017-02-09T11:23:06.256Z,1033.86
2017-02-09T11:23:46.821Z,1033.89
2017-02-09T11:24:27.265Z,1033.85
2017-02-09T11:25:07.793Z,1033.87
2017-02-09T11:25:48.228Z,1033.83
2017-02-09T11:26:28.705Z,1033.83
2017-02-09T11:27:09.222Z,1033.85
2017-02-09T11:27:49.755Z,1033.87
2017-02-09T11:28:30.345Z,1033.86
2017-02-09T11:29:10.756Z,1033.86
2017-02-09T11:29:51.241Z,1033.85
2017-02-09T11:30:31.686Z,1033.86
2017-02-09T11:31:12.153Z,1033.84
2017-02-09T11:31:52.672Z,1033.81
2017-02-09T11:32:33.130Z,1033.87
2017-02-09T11:33:13.620Z,1033.83
2017-02-09T11:33:54.319Z,1033.78
2017-02-09T11:34:34.795Z,1033.81
2017-02-09T11:35:15.279Z,1033.84
2017-02-09T11:35:55.749Z,1033.79
2017-02-09T11:36:36.263Z,1033.8
2017-02-09T11:37:16.741Z,1033.81
2017-02-09T11:37:57.232Z,1033.8
2017-02-09T11:38:37.733Z,1033.81
2017-02-09T11:39:18.314Z,1033.72
2017-02-09T11:39:58.829Z,1033.78
2017-02-09T11:40:39.374Z,1033.77
2017-02-09T11:41:19.957Z,1033.75
2017-02-09T11:42:00.448Z,1033.73
2017-02-09T11:42:40.943Z,1033.78
2017-02-09T11:43:21.484Z,1033.76
2017-02-09T11:44:02.001Z,1033.74
2017-02-09T11:44:42.486Z,1033.78
2017-02-09T11:45:23.101Z,1033.77
2017-02-09T11:46:03.630Z,1033.75
2017-02-09T11:46:44.106Z,1033.77
2017-02-09T11:47:24.635Z,1033.79
2017-02-09T11:48:05.149Z,1033.77
2017-02-09T11:48:45.669Z,1033.77
2017-02-09T11:49:26.150Z,1033.68
2017-02-09T11:50:06.693Z,1033.74
2017-02-09T11:50:47.188Z,1033.76
2017-02-09T11:51:27.692Z,1033.74
2017-02-09T11:52:08.248Z,1033.71
2017-02-09T11:52:48.749Z,1033.69
2017-02-09T11:53:29.311Z,1033.66
2017-02-09T11:54:09.800Z,1033.69
2017-02-09T11:54:50.287Z,1033.67
2017-02-09T11:55:30.811Z,1033.67
2017-02-09T11:56:11.549Z,1033.67
2017-02-09T11:56:52.059Z,1033.67
2017-02-09T11:57:32.568Z,1033.67
2017-02-09T11:58:13.146Z,1033.67
2017-02-09T11:58:54.075Z,1033.63
2017-02-09T11:59:34.568Z,1033.61
2017-02-09T12:00:15.242Z,1033.64
2017-02-09T12:00:55.710Z,1033.67
2017-02-09T12:01:36.233Z,1033.58
2017-02-09T12:02:16.897Z,1033.61
2017-02-09T12:02:57.431Z,1033.64
2017-02-09T12:03:38.191Z,1033.61
2017-02-09T12:04:18.667Z,1033.56
2017-02-09T12:04:59.168Z,1033.59
2017-02-09T12:05:39.658Z,1033.61
2017-02-09T12:06:20.216Z,1033.61
2017-02-09T12:07:00.706Z,1033.55
2017-02-09T12:07:43.113Z,1033.54
2017-02-09T12:08:23.626Z,1033.58
2017-02-09T12:09:04.172Z,1033.55
2017-02-09T12:09:44.577Z,1033.57
2017-02-09T12:10:25.054Z,1033.56
2017-02-09T12:11:05.517Z,1033.58
2017-02-09T12:11:46.006Z,1033.54
2017-02-09T12:12:26.556Z,1033.49
2017-02-09T12:13:07.063Z,1033.51
2017-02-09T12:13:47.549Z,1033.42
2017-02-09T12:14:28.801Z,1033.5
2017-02-09T12:15:09.464Z,1033.48
2017-02-09T12:15:49.966Z,1033.44
2017-02-09T12:16:30.471Z,1033.5
2017-02-09T12:17:10.983Z,1033.44
2017-02-09T12:17:51.478Z,1033.49
2017-02-09T12:18:32.045Z,1033.44
2017-02-09T12:19:12.535Z,1033.45
2017-02-09T12:19:53.029Z,1033.44
2017-02-09T12:20:33.503Z,1033.42
2017-02-09T12:21:14.022Z,1033.44
2017-02-09T12:21:54.540Z,1033.43
2017-02-09T12:22:35.010Z,1033.4
2017-02-09T12:23:15.458Z,1033.43
2017-02-09T12:23:55.961Z,1033.39
2017-02-09T12:24:36.456Z,1033.41
2017-02-09T12:25:16.941Z,1033.43
2017-02-09T12:25:57.414Z,1033.38
2017-02-09T12:26:38.171Z,1033.4
2017-02-09T12:27:18.688Z,1033.37
2017-02-09T12:27:59.277Z,1033.38
2017-02-09T12:28:39.815Z,1033.33
2017-02-09T12:29:20.304Z,1033.39
2017-02-09T12:30:00.811Z,1033.36
2017-02-09T12:30:41.342Z,1033.33
2017-02-09T12:31:21.870Z,1033.3
2017-02-09T12:32:02.429Z,1033.31
2017-02-09T12:32:42.903Z,1033.29
2017-02-09T12:33:23.548Z,1033.25
2017-02-09T12:34:09.641Z,1033.25
2017-02-09T12:34:51.648Z,1033.27
2017-02-09T12:35:32.265Z,1033.19
2017-02-09T12:36:13.122Z,1033.22
2017-02-09T12:36:53.597Z,1033.18
2017-02-09T12:37:34.194Z,1033.16
2017-02-09T12:38:14.807Z,1033.17
2017-02-09T12:38:55.318Z,1033.2
2017-02-09T12:39:35.806Z,1033.21
2017-02-09T12:40:16.343Z,1033.2
2017-02-09T12:40:56.873Z,1033.22
2017-02-09T12:41:38.211Z,1033.17
2017-02-09T12:42:18.685Z,1033.25
2017-02-09T12:42:59.180Z,1033.15
2017-02-09T12:43:39.671Z,1033.18
2017-02-09T12:44:20.151Z,1033.23
2017-02-09T12:45:00.665Z,1033.22
2017-02-09T12:45:41.120Z,1033.23
2017-02-09T12:46:21.601Z,1033.22
2017-02-09T12:47:02.148Z,1033.17
2017-02-09T12:47:42.630Z,1033.23
2017-02-09T12:48:23.248Z,1033.23
2017-02-09T12:49:03.740Z,1033.21
2017-02-09T12:49:44.310Z,1033.23
2017-02-09T12:50:24.966Z,1033.29
2017-02-09T12:51:06.467Z,1033.25
2017-02-09T12:51:47.053Z,1033.21
2017-02-09T12:52:29.262Z,1033.25
2017-02-09T12:53:10.497Z,1033.22
2017-02-09T12:53:52.779Z,1033.19
2017-02-09T12:54:35.079Z,1033.2
2017-02-09T12:55:15.737Z,1033.2
2017-02-09T12:55:56.296Z,1033.17
2017-02-09T12:56:36.826Z,1033.16
2017-02-09T12:57:17.331Z,1033.18
2017-02-09T12:57:57.816Z,1033.19
2017-02-09T12:58:38.347Z,1033.14
2017-02-09T12:59:18.917Z,1033.16
2017-02-09T12:59:59.364Z,1033.2
2017-02-09T13:00:39.832Z,1033.14
2017-02-09T13:01:20.434Z,1033.11
2017-02-09T13:02:01.706Z,1033.08
2017-02-09T13:02:42.379Z,1033.16
2017-02-09T13:03:22.920Z,1033.14
2017-02-09T13:04:03.372Z,1033.14
2017-02-09T13:04:46.403Z,1033.14
2017-02-09T13:05:26.886Z,1033.15
2017-02-09T13:06:07.571Z,1033.13
2017-02-09T13:06:48.044Z,1033.15
2017-02-09T13:07:28.516Z,1033.1
2017-02-09T13:08:09.014Z,1033.11
2017-02-09T13:08:49.556Z,1033.12
2017-02-09T13:09:30.165Z,1033.12
2017-02-09T13:10:10.724Z,1033.1
2017-02-09T13:10:51.248Z,1033.13
2017-02-09T13:11:31.837Z,1033.11
2017-02-09T13:12:16.450Z,1033.08
2017-02-09T13:13:04.507Z,1033.1
2017-02-09T13:13:46.153Z,1033.08
2017-02-09T13:14:31.585Z,1033.08
2017-02-09T13:15:18.921Z,1033.12
2017-02-09T13:15:59.418Z,1033.1
2017-02-09T13:16:39.920Z,1033.07
2017-02-09T13:17:20.369Z,1033.07
2017-02-09T13:18:00.986Z,1033.07
2017-02-09T13:18:41.553Z,1033.1
2017-02-09T13:19:22.104Z,1033.04
2017-02-09T13:20:02.668Z,1033.05
2017-02-09T13:20:43.178Z,1033.1
2017-02-09T13:21:23.782Z,1033.02
2017-02-09T13:22:04.755Z,1033.01
2017-02-09T13:22:45.390Z,1032.99
2017-02-09T13:23:25.970Z,1033.01
2017-02-09T13:24:06.457Z,1033
2017-02-09T13:24:47.293Z,1032.98
2017-02-09T13:25:27.809Z,1032.96
2017-02-09T13:26:08.218Z,1032.99
2017-02-09T13:26:48.781Z,1032.92
2017-02-09T13:27:29.267Z,1033.01
2017-02-09T13:28:09.889Z,1032.95
2017-02-09T13:28:50.434Z,1032.9
2017-02-09T13:29:30.931Z,1032.93
2017-02-09T13:30:12.365Z,1032.98
2017-02-09T13:30:52.910Z,1032.94
2017-02-09T13:31:33.486Z,1033.03
2017-02-09T13:32:13.983Z,1032.94
2017-02-09T13:32:54.651Z,1032.96
2017-02-09T13:33:35.152Z,1032.97
2017-02-09T13:34:15.676Z,1032.96
2017-02-09T13:34:56.199Z,1032.94
2017-02-09T13:35:36.666Z,1032.92
2017-02-09T13:36:17.138Z,1032.96
2017-02-09T13:36:57.630Z,1032.95
2017-02-09T13:37:38.407Z,1032.94
2017-02-09T13:38:18.948Z,1032.94
2017-02-09T13:38:59.998Z,1032.91
2017-02-09T13:39:40.496Z,1032.89
2017-02-09T13:40:20.998Z,1032.92
2017-02-09T13:41:01.461Z,1032.92
2017-02-09T13:41:41.942Z,1032.89
2017-02-09T13:42:22.532Z,1032.92
2017-02-09T13:43:03.173Z,1032.87
2017-02-09T13:43:43.694Z,1032.92
2017-02-09T13:44:26.072Z,1032.87
2017-02-09T13:45:06.621Z,1032.86
2017-02-09T13:45:47.392Z,1032.82
2017-02-09T13:46:27.934Z,1032.81
2017-02-09T13:47:08.450Z,1032.84
2017-02-09T13:47:48.921Z,1032.85
2017-02-09T13:48:29.488Z,1032.87
2017-02-09T13:49:10.019Z,1032.81
2017-02-09T13:49:50.496Z,1032.83
2017-02-09T13:50:32.135Z,1032.81
2017-02-09T13:51:12.675Z,1032.77
2017-02-09T13:51:53.334Z,1032.83
2017-02-09T13:52:34.256Z,1032.78
2017-02-09T13:53:14.893Z,1032.8
2017-02-09T13:53:55.346Z,1032.78
2017-02-09T13:54:35.884Z,1032.78
2017-02-09T13:55:16.447Z,1032.79
2017-02-09T13:55:57.046Z,1032.79
2017-02-09T13:56:37.512Z,1032.78
2017-02-09T13:57:17.995Z,1032.8
2017-02-09T13:57:58.524Z,1032.77
2017-02-09T13:58:39.012Z,1032.77
2017-02-09T13:59:19.544Z,1032.74
2017-02-09T14:00:00.023Z,1032.73
2017-02-09T14:00:40.474Z,1032.74
2017-02-09T14:01:21.059Z,1032.73
2017-02-09T14:02:01.529Z,1032.69
2017-02-09T14:02:41.979Z,1032.67
2017-02-09T14:03:22.483Z,1032.72
2017-02-09T14:04:03.302Z,1032.7
2017-02-09T14:04:43.744Z,1032.69
2017-02-09T14:05:24.228Z,1032.67
2017-02-09T14:06:04.710Z,1032.7
2017-02-09T14:06:45.208Z,1032.7
2017-02-09T14:07:25.663Z,1032.68
2017-02-09T14:08:06.199Z,1032.68
2017-02-09T14:08:46.604Z,1032.67
2017-02-09T14:09:27.153Z,1032.64
2017-02-09T14:10:07.616Z,1032.67
2017-02-09T14:10:48.181Z,1032.67
2017-02-09T14:11:28.644Z,1032.68
2017-02-09T14:12:09.156Z,1032.73
2017-02-09T14:12:49.641Z,1032.67
2017-02-09T14:13:30.271Z,1032.65
2017-02-09T14:14:10.798Z,1032.63
2017-02-09T14:14:51.300Z,1032.63
2017-02-09T14:15:31.827Z,1032.61
2017-02-09T14:16:12.279Z,1032.66
2017-02-09T14:16:52.760Z,1032.69
2017-02-09T14:17:33.281Z,1032.69
2017-02-09T14:18:13.745Z,1032.67
2017-02-09T14:18:54.274Z,1032.67
2017-02-09T14:19:34.755Z,1032.62
2017-02-09T14:20:15.255Z,1032.64
2017-02-09T14:20:55.773Z,1032.64
2017-02-09T14:21:37.211Z,1032.62
2017-02-09T14:22:17.675Z,1032.66
2017-02-09T14:22:58.249Z,1032.61
2017-02-09T14:23:38.748Z,1032.63
2017-02-09T14:24:19.235Z,1032.66
2017-02-09T14:24:59.723Z,1032.63
2017-02-09T14:25:40.190Z,1032.64
2017-02-09T14:26:20.714Z,1032.65
2017-02-09T14:27:01.197Z,1032.59
2017-02-09T14:27:41.719Z,1032.61
2017-02-09T14:28:22.199Z,1032.59
2017-02-09T14:29:02.654Z,1032.59
2017-02-09T14:29:43.173Z,1032.59
2017-02-09T14:30:23.642Z,1032.59
2017-02-09T14:31:04.119Z,1032.55
2017-02-09T14:31:44.625Z,1032.58
2017-02-09T14:32:25.101Z,1032.59
2017-02-09T14:33:05.566Z,1032.58
2017-02-09T14:33:46.097Z,1032.55
2017-02-09T14:34:26.557Z,1032.59
2017-02-09T14:35:07.077Z,1032.62
2017-02-09T14:35:47.509Z,1032.55
2017-02-09T14:36:27.950Z,1032.63
2017-02-09T14:37:08.435Z,1032.63
2017-02-09T14:37:48.978Z,1032.6
2017-02-09T14:38:29.485Z,1032.62
2017-02-09T14:39:09.947Z,1032.68
2017-02-09T14:39:50.503Z,1032.66
2017-02-09T14:42:10.557Z,1032.61
2017-02-09T14:42:49.863Z,1032.63
2017-02-09T14:43:30.309Z,1032.63
2017-02-09T14:44:10.819Z,1032.6
2017-02-09T14:44:51.316Z,1032.63
2017-02-09T14:45:31.857Z,1032.61
2017-02-09T14:46:12.372Z,1032.6
2017-02-09T14:46:52.906Z,1032.65
2017-02-09T14:47:33.340Z,1032.6
2017-02-09T14:48:13.838Z,1032.6
2017-02-09T14:48:54.295Z,1032.59
2017-02-09T14:49:34.755Z,1032.6
2017-02-09T14:50:15.277Z,1032.58
2017-02-09T14:50:56.474Z,1032.56
2017-02-09T14:51:36.929Z,1032.55
2017-02-09T14:52:17.439Z,1032.61
2017-02-09T14:52:57.940Z,1032.62
2017-02-09T14:53:38.497Z,1032.63
2017-02-09T14:54:18.979Z,1032.6
2017-02-09T14:54:59.546Z,1032.63
2017-02-09T14:55:40.026Z,1032.68
2017-02-09T14:56:20.469Z,1032.6
2017-02-09T14:57:01.017Z,1032.63
2017-02-09T14:57:41.548Z,1032.65
2017-02-09T14:58:21.986Z,1032.63
2017-02-09T14:59:02.492Z,1032.65
2017-02-09T14:59:43.089Z,1032.63
2017-02-09T15:00:23.497Z,1032.61
2017-02-09T15:01:04.013Z,1032.62
2017-02-09T15:01:44.519Z,1032.59
2017-02-09T15:02:25.014Z,1032.61
2017-02-09T15:03:05.583Z,1032.6
2017-02-09T15:03:46.019Z,1032.55
2017-02-09T15:04:26.517Z,1032.58
2017-02-09T15:05:06.992Z,1032.6
2017-02-09T15:05:47.526Z,1032.57
2017-02-09T15:06:27.984Z,1032.55
2017-02-09T15:07:08.468Z,1032.6
2017-02-09T15:07:48.983Z,1032.6
2017-02-09T15:08:29.703Z,1032.6
2017-02-09T15:10:58.424Z,1032.61
2017-02-09T15:11:39.486Z,1032.63
2017-02-09T15:12:19.955Z,1032.59
2017-02-09T15:13:00.482Z,1032.57
2017-02-09T15:13:40.937Z,1032.59
2017-02-09T15:14:21.429Z,1032.59
2017-02-09T15:15:01.910Z,1032.62
2017-02-09T15:15:42.371Z,1032.59
2017-02-09T15:16:22.896Z,1032.58
2017-02-09T15:17:03.385Z,1032.56
2017-02-09T15:17:43.910Z,1032.57
2017-02-09T15:18:24.365Z,1032.56
2017-02-09T15:19:04.902Z,1032.56
2017-02-09T15:19:45.386Z,1032.62
2017-02-09T15:20:25.929Z,1032.57
2017-02-09T15:21:06.493Z,1032.56
2017-02-09T15:21:46.929Z,1032.53
2017-02-09T15:22:27.470Z,1032.58
2017-02-09T15:23:08.192Z,1032.58
2017-02-09T15:23:48.637Z,1032.59
2017-02-09T15:24:29.153Z,1032.59
2017-02-09T15:25:09.683Z,1032.6
2017-02-09T15:25:50.160Z,1032.64
2017-02-09T15:26:30.639Z,1032.6
2017-02-09T15:27:11.132Z,1032.57
2017-02-09T15:27:51.610Z,1032.57
2017-02-09T15:28:32.187Z,1032.58
2017-02-09T15:29:12.678Z,1032.53
2017-02-09T15:29:53.170Z,1032.51
2017-02-09T15:30:33.787Z,1032.51
2017-02-09T15:31:14.268Z,1032.53
2017-02-09T15:31:54.776Z,1032.51
2017-02-09T15:32:35.364Z,1032.51
2017-02-09T15:33:15.798Z,1032.52
2017-02-09T15:33:56.256Z,1032.57
2017-02-09T15:34:36.698Z,1032.5
2017-02-09T15:35:18.204Z,1032.54
2017-02-09T15:35:58.768Z,1032.53
2017-02-09T15:36:39.527Z,1032.52
2017-02-09T15:37:20.041Z,1032.54
2017-02-09T15:38:00.576Z,1032.55
2017-02-09T15:38:41.082Z,1032.53
2017-02-09T15:39:21.576Z,1032.54
2017-02-09T15:40:02.253Z,1032.5
2017-02-09T15:40:42.883Z,1032.49
2017-02-09T15:41:23.390Z,1032.51
2017-02-09T15:42:03.851Z,1032.52
2017-02-09T15:42:44.339Z,1032.5
2017-02-09T15:43:24.816Z,1032.53
2017-02-09T15:44:05.308Z,1032.53
2017-02-09T15:44:45.839Z,1032.48
2017-02-09T15:45:26.299Z,1032.54
2017-02-09T15:46:06.857Z,1032.57
2017-02-09T15:46:47.392Z,1032.52
2017-02-09T15:47:27.884Z,1032.53
2017-02-09T15:48:08.363Z,1032.54
2017-02-09T15:48:48.852Z,1032.53
2017-02-09T15:49:29.313Z,1032.51
2017-02-09T15:50:09.828Z,1032.51
2017-02-09T15:50:50.311Z,1032.55
2017-02-09T15:51:30.839Z,1032.52
2017-02-09T15:52:11.349Z,1032.53
2017-02-09T15:52:51.847Z,1032.56
2017-02-09T15:53:32.360Z,1032.58
2017-02-09T15:54:12.783Z,1032.57
2017-02-09T15:54:53.449Z,1032.52
2017-02-09T15:55:33.938Z,1032.54
2017-02-09T15:56:14.485Z,1032.53
2017-02-09T15:56:55.026Z,1032.53
2017-02-09T15:57:35.551Z,1032.54
2017-02-09T15:58:16.045Z,1032.52
2017-02-09T15:58:57.026Z,1032.54
2017-02-09T15:59:37.615Z,1032.52
2017-02-09T16:00:18.215Z,1032.53
2017-02-09T16:00:58.769Z,1032.45
2017-02-09T16:01:39.191Z,1032.52
2017-02-09T16:02:19.741Z,1032.45
2017-02-09T16:03:00.295Z,1032.47
2017-02-09T16:03:40.727Z,1032.47
2017-02-09T16:04:21.265Z,1032.53
2017-02-09T16:05:01.762Z,1032.54
2017-02-09T16:05:42.244Z,1032.56
2017-02-09T16:06:22.741Z,1032.55
2017-02-09T16:07:03.190Z,1032.55
2017-02-09T16:07:43.672Z,1032.51
2017-02-09T16:08:24.206Z,1032.53
2017-02-09T16:09:04.685Z,1032.56
2017-02-09T16:09:45.135Z,1032.55
2017-02-09T16:10:25.694Z,1032.54
2017-02-09T16:11:06.203Z,1032.51
2017-02-09T16:11:46.717Z,1032.51
2017-02-09T16:13:49.233Z,1032.48
2017-02-09T16:14:37.149Z,1032.46
2017-02-09T16:15:26.191Z,1032.52
2017-02-09T16:16:14.854Z,1032.51
2017-02-09T16:17:03.045Z,1032.46
2017-02-09T16:17:52.048Z,1032.46
2017-02-09T16:18:35.209Z,1032.51
2017-02-09T16:19:15.708Z,1032.48
2017-02-09T16:19:56.164Z,1032.47
2017-02-09T16:20:36.685Z,1032.46
2017-02-09T16:21:17.223Z,1032.49
2017-02-09T16:21:57.750Z,1032.46
2017-02-09T16:22:38.312Z,1032.49
2017-02-09T16:23:18.795Z,1032.47
2017-02-09T16:23:59.252Z,1032.45
2017-02-09T16:24:39.752Z,1032.45
2017-02-09T16:25:20.306Z,1032.45
2017-02-09T16:26:00.801Z,1032.44
2017-02-09T16:26:41.252Z,1032.43
2017-02-09T16:27:21.698Z,1032.42
2017-02-09T16:28:02.294Z,1032.43
2017-02-09T16:28:42.863Z,1032.44
2017-02-09T16:29:23.418Z,1032.45
2017-02-09T16:30:03.887Z,1032.45
2017-02-09T16:30:44.435Z,1032.44
2017-02-09T16:31:24.886Z,1032.48
2017-02-09T16:32:05.451Z,1032.49
2017-02-09T16:32:45.906Z,1032.45
2017-02-09T16:33:26.399Z,1032.51
2017-02-09T16:34:06.929Z,1032.47
2017-02-09T16:34:47.356Z,1032.44
2017-02-09T16:35:27.863Z,1032.41